23:52
Airports
Links
Donate
Help keep this website running!
PayPal
Bitcoin
METAR
KTEB 192251Z 20008KT 10SM CLR 21/07 A3007 RMK AO2 SLP182 T02060067
Current Weather Conditions at KTEB
VFR 22:51:00 19-10-17
Automated station
Altimeter:30.07 hg
Temp:20.6°c 68°f
Dew point:6.7°c 43°f
Wind:8 knots, 9.2 mph, 4 m/s, from 200°
Visibility:10.0 statute miles
(CLR) Clear
Past METAR reports
VFR 21:51:00 19-10-17
Automated station
Altimeter:30.06 hg
Temp:22.8°c 72°f
Dew point:6.1°c 43°f
Wind:7 knots, 8.1 mph, 4 m/s, from 200°
Visibility:10.0 statute miles
(CLR) Clear
KTEB 192151Z 20007G18KT 10SM CLR 23/06 A3006 RMK AO2 SLP178 T02280061
VFR 20:51:00 19-10-17
Automated station
Altimeter:30.07 hg
Temp:23.9°c 73°f
Dew point:3.9°c 37°f
Wind:12 knots, 13.8 mph, 6 m/s, from 210°
Visibility:10.0 statute miles
(CLR) Clear
KTEB 192051Z 21012KT 10SM CLR 24/04 A3007 RMK AO2 SLP182 T02390039 56023
VFR 19:51:00 19-10-17
Automated station
Altimeter:30.09 hg
Temp:23.3°c 73°f
Dew point:3.3°c 37°f
Wind:9 knots, 10.4 mph, 5 m/s, from 220°
Visibility:10.0 statute miles
(CLR) Clear
KTEB 191951Z 22009KT 10SM CLR 23/03 A3009 RMK AO2 SLP189 T02330033
VFR 18:51:00 19-10-17
Automated station
Altimeter:30.11 hg
Temp:22.8°c 72°f
Dew point:3.9°c 37°f
Wind:10 knots, 11.5 mph, 5 m/s, from 220°
Visibility:10.0 statute miles
(CLR) Clear
KTEB 191851Z 22010KT 10SM CLR 23/04 A3011 RMK AO2 SLP195 T02280039
TAF
KTEB 192340Z 2000/2024 22007KT P6SM FEW250 FM200300 24005KT P6SM FEW250 FM200900 30004KT P6SM FEW250 FM201400 31009G16KT P6SM FEW250 FM202100 30007KT P6SM FEW250
Forecast at KTEB
00:00 20-10-17 to 03:00 20-10-17
Wind:7 Knots from 220°
Visibility:6.21 statute miles
25000FEW A few
FM 03:00 20-10-17 to 09:00 20-10-17
Wind:5 Knots from 240°
Visibility:6.21 statute miles
25000FEW A few
FM 09:00 20-10-17 to 14:00 20-10-17
Wind:4 Knots from 300°
Visibility:6.21 statute miles
25000FEW A few
FM 14:00 20-10-17 to 21:00 20-10-17
Wind:9 Knots from 310°
Visibility:6.21 statute miles
25000FEW A few
FM 21:00 20-10-17 to 00:00 21-10-17
Wind:7 Knots from 300°
Visibility:6.21 statute miles
25000FEW A few